Time;durP1;ratioP1;P1;durP2;ratioP2;P2;SDS_P1;SDS_P2;PMS_P1;PMS_P2;Temp;Humidity;BMP_temperature;BMP_pressure;BME280_temperature;BME280_humidity;BME280_pressure;Samples;Min_cycle;Max_cycle;Signal;HPM_P1;HPM_P2
2022/08/19 00:01:22;;;;;;;8.38;7.55;;;;;;;23.77;52.20;100850.28;5052941;28;20021;-70
2022/08/19 00:03:48;;;;;;;8.20;7.25;;;;;;;23.76;52.41;100848.63;5053210;28;20028;-70
2022/08/19 00:06:14;;;;;;;7.65;6.95;;;;;;;23.76;52.02;100850.53;5053363;28;20055;-70
2022/08/19 00:08:39;;;;;;;8.52;7.72;;;;;;;23.72;52.33;100844.78;5053301;28;20056;-70
2022/08/19 00:11:05;;;;;;;7.70;7.00;;;;;;;23.74;52.16;100856.25;5053122;28;20455;-71
2022/08/19 00:13:30;;;;;;;8.35;7.55;;;;;;;23.75;52.21;100859.78;5053192;28;20029;-71
2022/08/19 00:15:56;;;;;;;7.38;6.75;;;;;;;23.70;52.38;100849.69;5052865;28;20100;-71
2022/08/19 00:18:21;;;;;;;8.50;7.70;;;;;;;23.75;52.25;100862.53;5052822;28;20025;-71
2022/08/19 00:20:47;;;;;;;8.25;7.45;;;;;;;23.73;52.48;100849.16;5052766;28;20028;-71
2022/08/19 00:23:12;;;;;;;7.82;7.10;;;;;;;23.74;52.40;100856.25;5052909;28;20032;-71
2022/08/19 00:25:37;;;;;;;8.02;7.32;;;;;;;23.74;52.28;100856.25;5052794;28;20028;-71
2022/08/19 00:28:04;;;;;;;7.85;7.15;;;;;;;23.74;52.51;100861.72;5052983;28;20025;-72
2022/08/19 00:30:29;;;;;;;7.80;7.10;;;;;;;23.74;52.37;100853.53;5052678;28;20430;-71
2022/08/19 00:32:55;;;;;;;7.82;7.18;;;;;;;23.73;52.45;100854.63;5059828;28;20047;-71
2022/08/19 00:35:21;;;;;;;7.97;7.28;;;;;;;23.73;52.36;100864.69;5072616;28;20474;-71
2022/08/19 00:37:47;;;;;;;8.02;7.32;;;;;;;23.73;52.69;100865.53;5072972;28;20100;-71
2022/08/19 00:40:13;;;;;;;7.90;7.13;;;;;;;23.72;52.37;100863.88;5054841;28;20051;-71
2022/08/19 00:42:38;;;;;;;7.82;7.13;;;;;;;23.72;52.34;100863.06;5054915;28;20482;-71
2022/08/19 00:45:09;;;;;;;7.72;7.03;;;;;;;23.72;52.29;100869.34;5072832;28;20074;-71
2022/08/19 00:47:35;;;;;;;7.72;7.03;;;;;;;23.71;52.67;100873.16;5072493;28;20032;-71
2022/08/19 00:50:00;;;;;;;7.32;6.68;;;;;;;23.72;52.49;100868.53;5072388;28;20035;-71
2022/08/19 00:52:31;;;;;;;8.07;7.38;;;;;;;23.70;52.47;100870.69;5072771;28;20020;-71
2022/08/19 00:54:57;;;;;;;7.45;6.80;;;;;;;23.69;52.58;100869.88;5038972;28;20028;-71
2022/08/19 00:57:42;;;;;;;7.82;7.13;;;;;;;23.71;52.81;100873.16;5072540;28;20107;-71
2022/08/19 01:00:11;;;;;;;7.90;7.20;;;;;;;23.70;52.58;100884.31;5072307;28;20459;-71
2022/08/19 01:02:36;;;;;;;7.72;7.03;;;;;;;23.70;52.53;100882.44;5072845;28;20048;-71
2022/08/19 01:05:04;;;;;;;7.30;6.60;;;;;;;23.69;52.51;100886.25;5076103;28;20060;-71
2022/08/19 01:07:29;;;;;;;7.63;6.93;;;;;;;23.62;52.58;100874.72;5076398;28;20198;-72
2022/08/19 01:09:55;;;;;;;7.68;6.97;;;;;;;23.67;52.66;100888.41;5058530;28;20438;-71
2022/08/19 01:12:21;;;;;;;7.28;6.65;;;;;;;23.69;52.62;100880.78;5076145;28;20054;-71
2022/08/19 01:14:46;;;;;;;7.38;6.70;;;;;;;23.70;52.68;100878.88;5058864;28;20028;-72
2022/08/19 01:17:12;;;;;;;7.72;7.03;;;;;;;23.69;52.84;100888.97;5042234;28;20466;-71
2022/08/19 01:19:40;;;;;;;7.18;6.57;;;;;;;23.68;52.51;100890.06;5058651;28;20100;-71
2022/08/19 01:22:11;;;;;;;7.38;6.78;;;;;;;23.67;52.77;100888.41;5077554;28;20052;-71
2022/08/19 01:24:37;;;;;;;7.32;6.70;;;;;;;23.66;52.65;100889.47;5076241;28;20044;-71
2022/08/19 01:27:05;;;;;;;7.43;6.75;;;;;;;23.66;52.58;100892.22;5076852;28;20025;-71
2022/08/19 01:29:31;;;;;;;7.55;6.85;;;;;;;23.65;52.75;100893.31;5076172;28;20427;-71
2022/08/19 01:31:57;;;;;;;7.38;6.68;;;;;;;23.66;52.71;100896.84;5076135;28;20116;-72
2022/08/19 01:34:23;;;;;;;7.30;6.65;;;;;;;23.66;52.90;100894.94;5075356;28;20052;-72
2022/08/19 01:36:48;;;;;;;7.60;6.90;;;;;;;23.61;52.94;100889.44;5075915;28;20031;-71
2022/08/19 01:39:20;;;;;;;7.00;6.40;;;;;;;23.66;52.98;100900.41;5075750;28;20455;-71
2022/08/19 01:41:46;;;;;;;7.53;6.85;;;;;;;23.66;52.59;100896.84;5075784;28;20111;-71
2022/08/19 01:44:11;;;;;;;7.45;6.82;;;;;;;23.63;52.82;100890.84;5076139;28;20029;-71
2022/08/19 01:46:37;;;;;;;7.25;6.65;;;;;;;23.64;52.87;100899.84;5075355;28;20352;-71
2022/08/19 01:49:04;;;;;;;7.57;6.90;;;;;;;23.62;53.06;100896.56;5075169;28;20020;-71
2022/08/19 01:51:30;;;;;;;7.70;7.00;;;;;;;23.64;52.71;100899.84;5075307;28;20471;-71
2022/08/19 01:53:55;;;;;;;7.25;6.65;;;;;;;23.63;52.72;100907.22;5075231;28;20024;-71
2022/08/19 01:56:22;;;;;;;7.20;6.60;;;;;;;23.62;52.86;100904.75;5075138;28;20029;-71
2022/08/19 01:59:01;;;;;;;7.53;6.85;;;;;;;23.62;52.74;100912.94;5075412;28;20033;-72
2022/08/19 02:01:27;;;;;;;7.82;7.13;;;;;;;23.62;52.74;100913.75;5057215;28;20031;-72
2022/08/19 02:03:53;;;;;;;7.18;6.57;;;;;;;23.64;52.71;100910.75;5075286;28;20029;-72
2022/08/19 02:06:18;;;;;;;7.70;7.00;;;;;;;23.62;52.81;100907.47;5075303;28;20028;-72
2022/08/19 02:08:47;;;;;;;7.35;6.68;;;;;;;23.61;53.12;100912.13;5075129;28;20517;-72
2022/08/19 02:11:26;;;;;;;7.30;6.70;;;;;;;23.64;53.28;100921.66;5074934;28;20029;-71
2022/08/19 02:13:52;;;;;;;7.43;6.72;;;;;;;23.60;53.23;100926.84;5075185;28;20048;-71
2022/08/19 02:16:18;;;;;;;7.90;7.18;;;;;;;23.62;53.15;100929.31;5074067;28;20044;-71
2022/08/19 02:18:43;;;;;;;7.45;6.75;;;;;;;23.62;52.87;100923.84;5074935;28;20467;-71
2022/08/19 02:21:09;;;;;;;7.45;6.80;;;;;;;23.62;53.09;100926.56;5074949;28;20191;-71
2022/08/19 02:23:34;;;;;;;7.47;6.78;;;;;;;23.60;52.83;100917.84;5074960;28;20170;-71
2022/08/19 02:26:00;;;;;;;7.10;6.40;;;;;;;23.60;53.13;100923.28;5074869;28;20512;-71
2022/08/19 02:28:26;;;;;;;7.28;6.57;;;;;;;23.60;53.21;100920.56;5074483;28;20027;-71
2022/08/19 02:30:51;;;;;;;6.97;6.38;;;;;;;23.60;53.26;100923.28;5074642;28;20017;-71
2022/08/19 02:33:17;;;;;;;6.60;6.10;;;;;;;23.60;53.14;100935.03;5071552;28;20049;-71
2022/08/19 02:35:46;;;;;;;7.70;6.90;;;;;;;23.59;52.96;100925.22;5074705;28;20051;-71
2022/08/19 02:38:25;;;;;;;7.07;6.47;;;;;;;23.60;53.28;100926.03;5056404;28;20033;-71
2022/08/19 02:40:52;;;;;;;6.97;6.38;;;;;;;23.59;53.14;100927.94;5074254;28;20032;-71
2022/08/19 02:43:22;;;;;;;7.60;6.90;;;;;;;23.58;53.19;100922.75;5074653;28;20031;-71
2022/08/19 02:45:51;;;;;;;6.88;6.28;;;;;;;23.57;53.43;100929.25;5075261;28;20104;-71
2022/08/19 02:48:18;;;;;;;7.50;6.78;;;;;;;23.59;53.39;100925.22;5074568;28;20024;-71
2022/08/19 02:50:43;;;;;;;7.20;6.60;;;;;;;23.58;53.22;100929.00;5074422;28;20067;-71
2022/08/19 02:53:09;;;;;;;7.57;6.43;;;;;;;23.59;53.06;100927.09;5073859;28;20032;-71
2022/08/19 02:55:34;;;;;;;7.10;6.50;;;;;;;23.59;53.38;100929.81;5074315;28;20108;-71
2022/08/19 02:58:00;;;;;;;7.13;6.43;;;;;;;23.59;53.07;100924.38;5074198;28;20081;-71
2022/08/19 03:00:26;;;;;;;6.63;6.03;;;;;;;23.58;53.33;100923.53;5074016;28;20069;-71
2022/08/19 03:02:52;;;;;;;6.75;6.15;;;;;;;23.60;53.39;100932.28;5073991;28;20459;-71
2022/08/19 03:05:19;;;;;;;6.75;6.15;;;;;;;23.60;53.24;100926.84;5074277;28;20033;-71
2022/08/19 03:07:46;;;;;;;7.55;6.85;;;;;;;23.65;53.39;100930.69;5074625;28;20028;-72
2022/08/19 03:10:11;;;;;;;6.70;6.10;;;;;;;23.65;53.22;100934.25;5075085;28;20055;-71
2022/08/19 03:12:37;;;;;;;6.95;6.35;;;;;;;23.66;53.12;100927.69;5079621;28;20389;-71
2022/08/19 03:15:07;;;;;;;6.65;6.13;;;;;;;23.64;53.03;100929.84;5078952;28;20020;-71
2022/08/19 03:17:33;;;;;;;6.82;6.22;;;;;;;23.68;53.41;100930.16;5080037;28;20480;-71
2022/08/19 03:19:58;;;;;;;7.00;6.40;;;;;;;23.69;53.42;100924.44;5081197;28;20055;-71
2022/08/19 03:22:25;;;;;;;6.53;5.93;;;;;;;23.70;53.38;100930.72;5080993;28;20024;-72
2022/08/19 03:24:50;;;;;;;6.40;5.80;;;;;;;23.69;53.41;100935.34;5080869;28;20043;-72
2022/08/19 03:27:17;;;;;;;6.97;6.38;;;;;;;23.72;53.45;100940.28;5075769;28;20388;-72
2022/08/19 03:29:43;;;;;;;6.32;5.72;;;;;;;23.71;53.32;100946.81;5073561;28;20031;-72
2022/08/19 03:32:08;;;;;;;6.28;5.68;;;;;;;23.73;53.54;100941.09;5073886;28;20029;-72
2022/08/19 03:34:34;;;;;;;6.53;5.88;;;;;;;23.75;53.50;100939.78;5073204;28;20063;-71
2022/08/19 03:37:06;;;;;;;6.60;6.00;;;;;;;23.75;53.21;100942.50;5073357;28;20518;-71
2022/08/19 03:39:32;;;;;;;6.35;5.78;;;;;;;23.78;53.49;100933.78;5073637;28;20130;-71
2022/08/19 03:41:59;;;;;;;6.57;5.97;;;;;;;23.80;53.61;100937.06;5073285;28;20529;-71
2022/08/19 03:44:25;;;;;;;6.32;5.72;;;;;;;23.81;53.02;100943.38;5073192;28;20099;-71
2022/08/19 03:46:55;;;;;;;6.30;5.70;;;;;;;23.81;53.48;100943.38;5073555;28;20057;-71
2022/08/19 03:49:21;;;;;;;6.50;5.95;;;;;;;23.81;53.57;100944.19;5073229;28;20042;-71
2022/08/19 03:51:47;;;;;;;6.32;5.80;;;;;;;23.81;53.45;100960.56;5073356;28;20031;-71
2022/08/19 03:54:13;;;;;;;6.35;5.75;;;;;;;23.86;53.28;100950.78;5073427;28;20024;-71
2022/08/19 03:56:39;;;;;;;6.82;6.22;;;;;;;23.87;53.16;100946.97;5073347;28;20031;-72
2022/08/19 03:59:06;;;;;;;6.25;5.75;;;;;;;23.90;53.40;100951.91;5073225;28;20043;-72
2022/08/19 04:01:31;;;;;;;5.95;5.45;;;;;;;23.92;52.70;100949.72;5073283;28;20028;-71
2022/08/19 04:03:58;;;;;;;6.43;5.93;;;;;;;23.94;53.24;100955.72;5073383;28;20071;-72
2022/08/19 04:06:26;;;;;;;6.53;5.93;;;;;;;23.96;52.44;100948.13;5073520;28;20033;-72
2022/08/19 04:08:53;;;;;;;6.30;5.50;;;;;;;23.94;52.99;100953.84;5073574;28;20029;-72
2022/08/19 04:11:24;;;;;;;6.65;6.05;;;;;;;23.95;53.07;100954.66;5073267;28;20029;-72
2022/08/19 04:13:50;;;;;;;6.07;5.55;;;;;;;23.96;53.23;100951.66;5073203;28;20020;-72
2022/08/19 04:16:17;;;;;;;6.05;5.47;;;;;;;23.98;53.12;100952.22;5073028;28;20024;-72
2022/08/19 04:18:42;;;;;;;6.63;6.03;;;;;;;24.00;52.75;100954.69;5073575;28;20103;-72
2022/08/19 04:21:08;;;;;;;6.32;5.80;;;;;;;24.00;52.97;100954.69;5073273;28;20394;-72
2022/08/19 04:23:35;;;;;;;6.50;5.97;;;;;;;24.00;52.68;100947.31;5073049;28;20035;-72
2022/08/19 04:26:01;;;;;;;6.72;6.13;;;;;;;24.01;52.54;100950.88;5055427;28;20027;-72
2022/08/19 04:28:26;;;;;;;5.90;5.40;;;;;;;24.01;52.54;100953.63;5072674;28;20024;-72
2022/08/19 04:30:52;;;;;;;6.40;5.80;;;;;;;24.02;52.39;100957.97;5073158;28;20374;-72
2022/08/19 04:33:19;;;;;;;5.97;5.47;;;;;;;24.02;52.73;100954.44;5072349;28;20135;-72
2022/08/19 04:35:46;;;;;;;6.30;5.70;;;;;;;24.04;52.64;100958.53;5054973;28;20032;-72
2022/08/19 04:38:12;;;;;;;6.32;5.82;;;;;;;24.02;52.81;100966.16;5055549;28;20032;-72
2022/08/19 04:43:26;;;;;;;5.93;5.43;;;;;;;24.04;52.61;100974.91;5076783;28;20027;-72
2022/08/19 04:45:51;;;;;;;6.13;5.63;;;;;;;24.09;52.39;100971.41;5076323;28;20020;-72
2022/08/19 04:48:23;;;;;;;5.72;5.22;;;;;;;24.03;52.75;100967.00;5076442;28;20024;-72
2022/08/19 04:50:48;;;;;;;5.93;5.43;;;;;;;24.05;52.74;100979.28;5076789;28;20028;-72
2022/08/19 04:53:13;;;;;;;5.75;5.25;;;;;;;24.11;52.13;100974.69;5076772;28;20340;-72
2022/08/19 04:55:40;;;;;;;6.30;5.70;;;;;;;24.14;52.10;100979.63;5076161;28;20033;-72
2022/08/19 04:58:06;;;;;;;6.75;6.15;;;;;;;24.17;52.47;100976.38;5076528;28;20029;-72
2022/08/19 05:00:31;;;;;;;5.90;5.40;;;;;;;24.16;52.71;100978.28;5076356;28;20032;-72
2022/08/19 05:02:57;;;;;;;5.75;5.25;;;;;;;24.10;52.95;100983.97;5076448;28;20024;-72
2022/08/19 05:05:22;;;;;;;5.85;5.35;;;;;;;24.15;52.72;100990.28;5057936;28;20021;-72
2022/08/19 05:07:48;;;;;;;6.05;5.50;;;;;;;24.15;52.93;100990.28;5076206;28;20028;-72
2022/08/19 05:10:13;;;;;;;6.22;5.50;;;;;;;24.10;53.83;100994.91;5076435;28;20493;-72
2022/08/19 05:12:39;;;;;;;6.63;5.93;;;;;;;24.16;54.55;100994.66;5075770;28;20021;-73
2022/08/19 05:15:05;;;;;;;8.77;5.25;;;;;;;24.22;53.93;101000.16;5075836;28;20040;-72
2022/08/19 05:17:31;;;;;;;6.47;5.88;;;;;;;24.24;53.64;100997.97;5076426;28;20029;-72
2022/08/19 05:22:41;;;;;;;5.93;5.20;;;;;;;24.12;53.71;100996.25;5076277;28;20406;-72
2022/08/19 05:25:09;;;;;;;10.27;5.35;;;;;;;24.14;54.16;101012.38;5075644;28;20044;-72
2022/08/19 05:27:34;;;;;;;9.48;6.22;;;;;;;24.22;53.93;101013.81;5076312;28;20051;-72
2022/08/19 05:29:59;;;;;;;6.90;5.53;;;;;;;24.14;55.37;101021.41;5076023;28;20435;-72
2022/08/19 05:32:25;;;;;;;9.65;5.78;;;;;;;24.17;56.27;101018.13;5076475;28;20029;-72
2022/08/19 05:34:51;;;;;;;6.47;5.78;;;;;;;24.23;55.02;101012.72;5039389;28;20436;-72
2022/08/19 05:37:16;;;;;;;9.00;5.85;;;;;;;24.22;55.30;101008.34;5056033;28;20021;-71
2022/08/19 05:39:42;;;;;;;9.50;5.90;;;;;;;24.26;54.66;101009.47;5057108;28;20028;-70
2022/08/19 05:42:08;;;;;;;6.85;5.40;;;;;;;24.23;54.65;101010.78;5040486;28;20024;-72
2022/08/19 05:44:38;;;;;;;6.47;5.50;;;;;;;24.24;53.92;101006.19;5064471;28;20025;-70
2022/08/19 05:47:05;;;;;;;6.07;5.57;;;;;;;24.25;54.05;101003.19;5042687;28;20029;-69
2022/08/19 05:49:32;;;;;;;5.82;5.22;;;;;;;24.16;54.32;101010.22;5060702;28;20017;-70
2022/08/19 05:51:58;;;;;;;5.95;5.38;;;;;;;24.21;54.19;100998.50;5062030;28;20031;-71
2022/08/19 05:54:24;;;;;;;5.90;5.22;;;;;;;24.22;54.06;101003.72;5060322;28;20056;-71
2022/08/19 05:56:50;;;;;;;5.97;5.30;;;;;;;24.29;54.46;101004.28;5062545;28;20091;-70
2022/08/19 05:59:16;;;;;;;5.97;5.47;;;;;;;24.23;54.09;101002.59;5061742;28;20061;-72
2022/08/19 06:01:45;;;;;;;6.45;5.20;;;;;;;24.27;53.92;100992.81;5064467;28;20063;-71
2022/08/19 06:04:10;;;;;;;6.30;5.07;;;;;;;24.24;54.41;101000.72;5057220;28;20467;-72
2022/08/19 06:06:36;;;;;;;6.68;5.30;;;;;;;24.31;54.46;100990.38;5056268;28;20107;-71
2022/08/19 06:09:05;;;;;;;5.57;5.00;;;;;;;24.28;54.30;101001.81;5055697;28;20063;-71
2022/08/19 06:11:35;;;;;;;6.13;5.28;;;;;;;24.24;54.50;100997.97;5056285;28;20459;-71
2022/08/19 06:14:03;;;;;;;5.47;4.82;;;;;;;24.25;54.25;100997.72;5021692;28;20037;-70
2022/08/19 06:16:31;;;;;;;5.45;4.95;;;;;;;24.29;54.38;101004.28;5056044;28;20107;-71
2022/08/19 06:18:57;;;;;;;5.18;4.78;;;;;;;24.23;54.67;100999.06;5055384;28;20418;-70
2022/08/19 06:21:26;;;;;;;8.95;5.20;;;;;;;24.34;54.95;100995.31;5037283;28;20021;-70
2022/08/19 06:23:52;;;;;;;5.10;4.68;;;;;;;23.67;56.64;101008.47;5054707;28;20079;-70
2022/08/19 06:26:18;;;;;;;4.97;4.47;;;;;;;24.06;55.81;101004.69;5037380;28;20029;-71
2022/08/19 06:28:46;;;;;;;7.07;5.05;;;;;;;23.77;56.46;100997.63;5054852;28;20025;-70
2022/08/19 06:31:25;;;;;;;5.13;4.68;;;;;;;23.63;56.83;100997.25;5036883;28;20550;-70
2022/08/19 06:33:51;;;;;;;5.55;4.80;;;;;;;23.80;56.49;100997.13;5065143;28;20057;-69
2022/08/19 06:36:31;;;;;;;5.25;4.75;;;;;;;23.98;55.98;101000.56;5074338;28;20087;-69
2022/08/19 06:38:57;;;;;;;5.35;4.85;;;;;;;24.17;55.71;101003.69;5074164;28;20032;-69
2022/08/19 06:41:23;;;;;;;5.43;4.93;;;;;;;24.25;55.31;100996.88;5074477;28;20102;-69
2022/08/19 06:43:49;;;;;;;5.43;4.22;;;;;;;24.24;55.48;100992.53;5056332;28;20394;-70
2022/08/19 06:46:15;;;;;;;5.15;4.75;;;;;;;24.27;55.38;101000.19;5074161;28;20021;-69
2022/08/19 06:48:41;;;;;;;7.68;4.68;;;;;;;24.34;55.04;101000.78;5074413;28;20024;-69
2022/08/19 06:51:06;;;;;;;5.38;4.93;;;;;;;24.40;54.81;100990.69;5073898;28;20020;-69
2022/08/19 06:53:32;;;;;;;5.00;4.50;;;;;;;24.35;54.87;100999.66;5073851;28;20032;-68
2022/08/19 06:56:01;;;;;;;6.47;4.72;;;;;;;24.45;54.52;100998.91;5074606;28;20466;-69
2022/08/19 06:58:33;;;;;;;5.35;4.85;;;;;;;24.35;54.87;100992.31;5040794;28;20045;-68
2022/08/19 07:01:06;;;;;;;5.43;4.93;;;;;;;24.44;55.34;100989.91;5073552;28;20193;-69
2022/08/19 07:03:33;;;;;;;4.50;4.13;;;;;;;24.81;54.01;100988.16;5073762;28;20024;-70
2022/08/19 07:06:14;;;;;;;4.53;4.13;;;;;;;24.23;55.74;100985.41;5073583;28;20056;-69
2022/08/19 07:08:42;;;;;;;5.43;4.93;;;;;;;24.28;55.14;100988.16;5073843;28;20024;-70
2022/08/19 07:11:09;;;;;;;6.25;5.65;;;;;;;24.41;54.73;100990.41;5056317;28;20475;-70
2022/08/19 07:13:37;;;;;;;8.02;4.70;;;;;;;24.50;54.49;100990.75;5055584;28;20030;-70
2022/08/19 07:16:13;;;;;;;6.38;5.63;;;;;;;24.52;54.33;100994.03;5073486;28;20434;-69
2022/08/19 07:18:38;;;;;;;8.07;6.38;;;;;;;24.53;54.40;100988.28;5073327;28;20028;-70
2022/08/19 07:21:13;;;;;;;8.50;6.18;;;;;;;24.55;54.45;100988.88;5055423;28;20068;-69
2022/08/19 07:23:39;;;;;;;8.57;6.47;;;;;;;24.58;54.45;100979.34;5074529;28;20025;-68
2022/08/19 07:26:09;;;;;;;7.93;6.50;;;;;;;24.68;54.24;100989.47;5073618;28;20467;-69
2022/08/19 07:28:34;;;;;;;7.63;6.28;;;;;;;24.64;54.19;100988.38;5073115;28;20049;-69
2022/08/19 07:31:01;;;;;;;7.38;6.10;;;;;;;24.66;54.17;100980.72;5073310;28;20024;-70
2022/08/19 07:33:27;;;;;;;5.72;5.13;;;;;;;24.91;54.27;100980.00;5068416;28;20037;-69
2022/08/19 07:35:53;;;;;;;7.30;5.35;;;;;;;25.75;52.09;100979.81;5053833;28;20426;-69
2022/08/19 07:38:18;;;;;;;5.95;5.13;;;;;;;24.82;54.83;100971.50;5053946;28;20347;-70
2022/08/19 07:40:45;;;;;;;6.93;5.60;;;;;;;24.58;54.99;100978.50;5053797;28;20127;-69
2022/08/19 07:43:11;;;;;;;5.97;5.38;;;;;;;24.68;55.03;100978.53;5036693;28;20032;-70
2022/08/19 07:45:37;;;;;;;7.35;5.50;;;;;;;24.71;54.33;100972.53;5054186;28;20513;-70
2022/08/19 07:48:03;;;;;;;5.55;5.05;;;;;;;24.81;54.29;100972.56;5053279;28;20423;-69
2022/08/19 07:50:29;;;;;;;5.80;5.03;;;;;;;24.70;54.41;100977.19;5054250;28;20025;-70
2022/08/19 07:52:54;;;;;;;7.45;5.20;;;;;;;24.81;54.47;100969.03;5054296;28;20104;-71
2022/08/19 07:55:24;;;;;;;5.22;4.72;;;;;;;24.84;54.05;100973.97;5055904;28;20104;-70
2022/08/19 07:57:49;;;;;;;5.50;5.00;;;;;;;24.84;54.28;100971.22;5059581;28;20025;-70
2022/08/19 08:00:18;;;;;;;5.00;4.60;;;;;;;24.79;54.32;100974.75;5060624;28;20525;-72
2022/08/19 08:02:43;;;;;;;5.05;4.47;;;;;;;24.73;54.19;100973.09;5062565;28;20033;-70
2022/08/19 08:10:37;;;;;;;5.50;4.85;;;;;;;24.85;54.41;100976.44;5061506;28;20075;-70
2022/08/19 08:13:04;;;;;;;5.05;4.65;;;;;;;24.87;54.17;100971.50;5020651;28;20422;-69
2022/08/19 08:15:30;;;;;;;5.00;4.60;;;;;;;24.91;54.12;100971.78;5055282;28;20451;-69
2022/08/19 08:17:57;;;;;;;5.05;4.65;;;;;;;24.87;53.89;100966.03;5034918;28;20032;-68
2022/08/19 08:20:23;;;;;;;5.35;4.85;;;;;;;24.84;54.31;100968.50;5055303;28;20045;-69
2022/08/19 08:25:32;;;;;;;6.22;4.60;;;;;;;24.84;54.00;100961.09;5052692;28;20087;-70
2022/08/19 08:27:59;;;;;;;4.43;4.03;;;;;;;24.83;53.82;100959.44;5052878;28;20029;-70
2022/08/19 08:30:25;;;;;;;4.90;4.50;;;;;;;24.91;53.49;100960.84;5035254;28;20017;-69
2022/08/19 08:32:51;;;;;;;4.75;4.35;;;;;;;24.86;53.57;100969.84;5055160;28;20360;-70
2022/08/19 08:35:18;;;;;;;5.10;4.60;;;;;;;24.89;53.57;100963.84;5072116;28;20025;-70
2022/08/19 08:37:45;;;;;;;4.68;4.25;;;;;;;24.84;53.72;100963.03;5072798;28;20024;-69
2022/08/19 08:40:18;;;;;;;4.32;4.03;;;;;;;24.86;53.62;100964.38;5072839;28;20122;-71
2022/08/19 08:43:12;;;;;;;4.28;3.97;;;;;;;24.96;53.07;100973.69;5072848;28;20028;-69
2022/08/19 08:45:52;;;;;;;4.63;4.23;;;;;;;24.90;53.43;100979.16;5068210;28;20037;-70
2022/08/19 08:48:24;;;;;;;4.70;4.30;;;;;;;24.89;53.03;100971.25;5072525;28;20087;-70
2022/08/19 08:50:50;;;;;;;4.97;4.47;;;;;;;24.86;53.22;100967.13;5038649;28;20056;-70
2022/08/19 08:53:18;;;;;;;4.90;4.50;;;;;;;24.89;52.91;100963.03;5038339;28;20025;-71
2022/08/19 08:55:45;;;;;;;4.57;4.18;;;;;;;24.83;53.06;100964.91;5038718;28;20024;-71
2022/08/19 08:58:16;;;;;;;4.18;3.88;;;;;;;24.85;52.78;100978.31;5072686;28;20103;-70
2022/08/19 09:00:46;;;;;;;4.18;3.83;;;;;;;24.82;53.04;100974.22;5072714;28;20024;-70
2022/08/19 09:03:30;;;;;;;4.07;3.78;;;;;;;24.76;52.98;100975.28;5055421;28;20024;-70
2022/08/19 09:06:03;;;;;;;4.20;3.90;;;;;;;24.74;52.88;100975.56;5038623;28;20327;-70
2022/08/19 09:08:44;;;;;;;4.60;4.20;;;;;;;24.67;53.62;100980.44;5073585;28;20142;-70
2022/08/19 09:11:13;;;;;;;4.68;4.28;;;;;;;24.60;53.51;100987.28;5072690;28;20044;-71
2022/08/19 09:13:46;;;;;;;4.40;4.00;;;;;;;24.64;53.22;100988.38;5055073;28;20063;-73
2022/08/19 09:16:23;;;;;;;4.82;4.38;;;;;;;24.71;52.96;100988.94;5057238;28;20024;-70
2022/08/19 09:18:58;;;;;;;4.60;4.05;;;;;;;24.66;52.73;100975.25;5056912;28;20037;-73
2022/08/19 09:21:24;;;;;;;5.32;4.05;;;;;;;24.63;52.97;100981.25;5055549;28;20029;-71
2022/08/19 09:23:53;;;;;;;4.53;4.13;;;;;;;24.59;52.91;100988.34;5072550;28;20644;-70
2022/08/19 09:26:20;;;;;;;4.80;4.40;;;;;;;24.60;52.84;100979.06;5058864;28;20024;-69
2022/08/19 09:28:47;;;;;;;6.03;4.10;;;;;;;24.65;53.20;100984.56;5057893;28;20071;-70
2022/08/19 09:31:14;;;;;;;4.65;3.92;;;;;;;24.63;52.95;100982.09;5058244;28;20138;-70
2022/08/19 09:33:43;;;;;;;5.45;4.45;;;;;;;24.58;52.82;100989.41;5053506;28;20522;-72
2022/08/19 09:36:13;;;;;;;4.68;4.30;;;;;;;24.61;52.39;100984.28;5075977;28;20061;-70
2022/08/19 09:38:42;;;;;;;5.35;4.55;;;;;;;24.70;52.38;100987.31;5077252;28;20048;-71
2022/08/19 09:41:15;;;;;;;5.47;4.97;;;;;;;24.64;52.43;100991.91;5077013;28;20029;-71
2022/08/19 09:43:41;;;;;;;5.93;5.17;;;;;;;24.64;52.10;100993.81;5077678;28;20044;-70
2022/08/19 09:46:11;;;;;;;5.40;4.80;;;;;;;24.68;52.19;100984.00;5077349;28;20326;-71
2022/08/19 09:48:38;;;;;;;4.93;4.53;;;;;;;24.69;51.91;100981.00;5028229;28;20028;-70
2022/08/19 09:51:11;;;;;;;7.85;4.75;;;;;;;24.79;51.38;100984.88;5075886;28;20021;-70
2022/08/19 09:53:37;;;;;;;4.63;4.23;;;;;;;25.22;49.72;100994.53;5076764;28;20035;-70
2022/08/19 09:56:03;;;;;;;4.80;4.35;;;;;;;25.34;49.02;100983.38;5075120;28;20028;-69
2022/08/19 09:58:29;;;;;;;4.60;4.20;;;;;;;26.04;46.81;100999.25;5075217;28;20033;-71
2022/08/19 10:00:55;;;;;;;14.57;4.22;;;;;;;25.43;48.14;101002.81;5075913;28;20028;-69
2022/08/19 10:03:21;;;;;;;5.30;4.75;;;;;;;25.02;50.06;100999.97;5076634;28;20482;-70
2022/08/19 10:05:49;;;;;;;7.05;5.10;;;;;;;24.97;50.24;100997.22;5075648;28;20024;-71
2022/08/19 10:08:32;;;;;;;5.63;5.05;;;;;;;24.91;50.33;101004.59;5075880;28;20195;-70
2022/08/19 10:10:58;;;;;;;5.72;5.20;;;;;;;24.94;50.20;100993.13;5058877;28;20048;-71
2022/08/19 10:13:25;;;;;;;5.20;4.70;;;;;;;25.04;50.04;101001.34;5057985;28;20344;-70
2022/08/19 10:15:52;;;;;;;6.30;4.55;;;;;;;25.00;49.83;101000.22;5075395;28;20055;-70
2022/08/19 10:18:19;;;;;;;5.28;4.60;;;;;;;25.01;49.89;101003.78;5075919;28;20495;-70
2022/08/19 10:20:46;;;;;;;5.05;4.55;;;;;;;25.03;49.75;101007.09;5076362;28;20074;-70
2022/08/19 10:23:12;;;;;;;4.90;4.50;;;;;;;25.02;49.77;100999.97;5075435;28;20040;-70
2022/08/19 10:25:41;;;;;;;4.90;4.40;;;;;;;25.03;49.37;100990.69;5024413;28;20036;-70
2022/08/19 10:28:07;;;;;;;5.25;4.10;;;;;;;24.97;49.37;100997.22;5074669;28;20024;-69
2022/08/19 10:30:33;;;;;;;4.88;4.47;;;;;;;25.07;48.93;100991.78;5075769;28;20078;-71
2022/08/19 10:32:59;;;;;;;5.80;4.53;;;;;;;24.97;49.43;100984.34;5075070;28;20049;-70
2022/08/19 10:35:27;;;;;;;5.43;4.30;;;;;;;25.02;49.14;100986.28;5074646;28;20421;-71
2022/08/19 10:37:52;;;;;;;5.10;4.50;;;;;;;25.03;48.71;100985.22;5056780;28;20074;-70
2022/08/19 10:40:18;;;;;;;5.03;4.47;;;;;;;25.05;48.67;100985.75;5074976;28;20032;-69
2022/08/19 10:42:44;;;;;;;4.70;4.30;;;;;;;25.03;48.71;100985.22;5074721;28;20463;-70
2022/08/19 10:45:10;;;;;;;5.97;4.30;;;;;;;25.03;48.53;100990.69;5074536;28;20055;-70
2022/08/19 10:47:35;;;;;;;4.57;4.18;;;;;;;25.05;48.56;100983.84;5074462;28;20490;-69
2022/08/19 10:52:46;;;;;;;;;;;;;;;25.08;48.04;100980.56;5076734;28;20106;-69
2022/08/19 10:57:55;;;;;;;4.25;3.92;;;;;;;25.05;48.30;100983.03;5075586;28;20086;-71
2022/08/19 11:00:21;;;;;;;4.40;4.00;;;;;;;25.08;48.08;100983.31;5075952;28;20028;-71
2022/08/19 11:02:47;;;;;;;4.30;3.90;;;;;;;25.09;47.84;100978.66;5074249;28;20585;-71
2022/08/19 11:05:14;;;;;;;5.10;4.53;;;;;;;25.10;47.56;100986.59;5075423;28;20020;-71
2022/08/19 11:07:40;;;;;;;4.53;4.13;;;;;;;25.05;47.54;100983.84;5074493;28;20040;-71
2022/08/19 11:10:06;;;;;;;5.07;4.00;;;;;;;25.11;47.42;100971.00;5074447;28;20028;-71
2022/08/19 11:12:32;;;;;;;4.75;4.35;;;;;;;25.10;47.62;100983.84;5074961;28;20399;-71
2022/08/19 11:14:58;;;;;;;4.45;4.05;;;;;;;25.13;47.42;100985.25;5075759;28;20024;-70
2022/08/19 11:17:24;;;;;;;4.18;3.88;;;;;;;25.06;47.62;100980.03;5075538;28;20043;-70
2022/08/19 11:19:49;;;;;;;4.57;4.15;;;;;;;25.09;47.69;100978.66;5074516;28;20049;-70
2022/08/19 11:22:15;;;;;;;4.63;4.22;;;;;;;25.15;47.32;100987.69;5074294;28;20052;-70
2022/08/19 11:24:40;;;;;;;4.35;3.95;;;;;;;25.10;47.52;100974.84;5074338;28;20041;-70
2022/08/19 11:27:08;;;;;;;4.43;4.03;;;;;;;25.15;47.27;100983.06;5074453;28;20358;-70
2022/08/19 11:29:34;;;;;;;4.22;3.85;;;;;;;25.14;47.07;100975.91;5073516;28;20028;-70
2022/08/19 11:32:01;;;;;;;4.85;3.90;;;;;;;25.20;46.85;100980.31;5073666;28;20036;-69
2022/08/19 11:34:28;;;;;;;4.15;3.85;;;;;;;25.18;46.92;100976.19;5064869;28;20072;-70
2022/08/19 11:36:54;;;;;;;4.50;4.10;;;;;;;25.12;46.95;100975.38;5053268;28;20028;-70
2022/08/19 11:39:21;;;;;;;4.50;3.65;;;;;;;25.18;46.91;100973.47;5053833;28;20025;-71
2022/08/19 11:41:46;;;;;;;4.05;3.75;;;;;;;25.10;46.96;100972.91;5053181;28;20025;-70
2022/08/19 11:44:13;;;;;;;4.00;3.60;;;;;;;25.22;46.63;100966.38;5053445;28;20074;-70